sensor_id;sensor_type;location;lat;lon;timestamp;P1;durP1;ratioP1;P2;durP2;ratioP2
77769;SDS011;66961;51.482;9.160;2024-01-11T00:02:03;54.00;;;22.00;;
77769;SDS011;66961;51.482;9.160;2024-01-11T00:04:28;48.37;;;20.13;;
77769;SDS011;66961;51.482;9.160;2024-01-11T00:06:53;51.13;;;21.23;;
77769;SDS011;66961;51.482;9.160;2024-01-11T00:09:19;55.40;;;21.57;;
77769;SDS011;66961;51.482;9.160;2024-01-11T00:11:44;46.27;;;20.60;;
77769;SDS011;66961;51.482;9.160;2024-01-11T00:14:09;43.60;;;21.23;;
77769;SDS011;66961;51.482;9.160;2024-01-11T00:16:35;49.07;;;18.43;;
77769;SDS011;66961;51.482;9.160;2024-01-11T00:19:00;44.77;;;19.13;;
77769;SDS011;66961;51.482;9.160;2024-01-11T00:21:25;44.20;;;18.02;;
77769;SDS011;66961;51.482;9.160;2024-01-11T00:23:50;45.40;;;18.60;;
77769;SDS011;66961;51.482;9.160;2024-01-11T00:26:16;47.73;;;19.17;;
77769;SDS011;66961;51.482;9.160;2024-01-11T00:28:41;42.23;;;19.13;;
77769;SDS011;66961;51.482;9.160;2024-01-11T00:31:06;44.53;;;19.27;;
77769;SDS011;66961;51.482;9.160;2024-01-11T00:33:32;47.23;;;18.60;;
77769;SDS011;66961;51.482;9.160;2024-01-11T00:35:57;47.63;;;19.03;;
77769;SDS011;66961;51.482;9.160;2024-01-11T00:38:23;47.40;;;19.35;;
77769;SDS011;66961;51.482;9.160;2024-01-11T00:40:48;51.67;;;18.47;;
77769;SDS011;66961;51.482;9.160;2024-01-11T00:43:14;44.67;;;17.53;;
77769;SDS011;66961;51.482;9.160;2024-01-11T00:45:39;43.60;;;17.93;;
77769;SDS011;66961;51.482;9.160;2024-01-11T00:48:04;40.10;;;18.40;;
77769;SDS011;66961;51.482;9.160;2024-01-11T00:50:30;40.78;;;17.10;;
77769;SDS011;66961;51.482;9.160;2024-01-11T00:52:55;40.42;;;16.73;;
77769;SDS011;66961;51.482;9.160;2024-01-11T00:55:21;44.45;;;17.40;;
77769;SDS011;66961;51.482;9.160;2024-01-11T00:57:46;42.33;;;17.33;;
77769;SDS011;66961;51.482;9.160;2024-01-11T01:00:11;47.83;;;17.60;;
77769;SDS011;66961;51.482;9.160;2024-01-11T01:02:37;44.13;;;18.02;;
77769;SDS011;66961;51.482;9.160;2024-01-11T01:05:02;42.60;;;18.20;;
77769;SDS011;66961;51.482;9.160;2024-01-11T01:07:28;45.08;;;19.42;;
77769;SDS011;66961;51.482;9.160;2024-01-11T01:09:53;43.60;;;18.27;;
77769;SDS011;66961;51.482;9.160;2024-01-11T01:12:18;49.13;;;19.33;;
77769;SDS011;66961;51.482;9.160;2024-01-11T01:14:44;47.00;;;20.03;;
77769;SDS011;66961;51.482;9.160;2024-01-11T01:17:09;45.17;;;18.77;;
77769;SDS011;66961;51.482;9.160;2024-01-11T01:19:34;44.47;;;18.87;;
77769;SDS011;66961;51.482;9.160;2024-01-11T01:21:59;42.03;;;17.53;;
77769;SDS011;66961;51.482;9.160;2024-01-11T01:24:25;44.03;;;17.17;;
77769;SDS011;66961;51.482;9.160;2024-01-11T01:26:50;41.73;;;17.57;;
77769;SDS011;66961;51.482;9.160;2024-01-11T01:29:15;42.30;;;18.13;;
77769;SDS011;66961;51.482;9.160;2024-01-11T01:31:40;41.40;;;17.47;;
77769;SDS011;66961;51.482;9.160;2024-01-11T01:34:06;38.60;;;16.63;;
77769;SDS011;66961;51.482;9.160;2024-01-11T01:36:32;40.17;;;15.98;;
77769;SDS011;66961;51.482;9.160;2024-01-11T01:38:57;38.00;;;16.00;;
77769;SDS011;66961;51.482;9.160;2024-01-11T01:41:22;38.57;;;15.70;;
77769;SDS011;66961;51.482;9.160;2024-01-11T01:43:48;38.93;;;15.90;;
77769;SDS011;66961;51.482;9.160;2024-01-11T01:46:14;40.77;;;15.47;;
77769;SDS011;66961;51.482;9.160;2024-01-11T01:51:10;33.03;;;13.70;;
77769;SDS011;66961;51.482;9.160;2024-01-11T01:53:35;42.35;;;15.52;;
77769;SDS011;66961;51.482;9.160;2024-01-11T01:56:01;40.22;;;15.30;;
77769;SDS011;66961;51.482;9.160;2024-01-11T01:58:27;39.60;;;15.45;;
77769;SDS011;66961;51.482;9.160;2024-01-11T02:00:53;36.55;;;16.40;;
77769;SDS011;66961;51.482;9.160;2024-01-11T02:03:18;38.03;;;16.03;;
77769;SDS011;66961;51.482;9.160;2024-01-11T02:05:44;42.05;;;17.17;;
77769;SDS011;66961;51.482;9.160;2024-01-11T02:08:12;40.78;;;16.60;;
77769;SDS011;66961;51.482;9.160;2024-01-11T02:10:41;37.80;;;16.83;;
77769;SDS011;66961;51.482;9.160;2024-01-11T02:13:07;45.00;;;16.70;;
77769;SDS011;66961;51.482;9.160;2024-01-11T02:15:33;40.23;;;16.73;;
77769;SDS011;66961;51.482;9.160;2024-01-11T02:17:59;40.85;;;17.40;;
77769;SDS011;66961;51.482;9.160;2024-01-11T02:20:25;47.43;;;18.03;;
77769;SDS011;66961;51.482;9.160;2024-01-11T02:22:52;41.60;;;16.77;;
77769;SDS011;66961;51.482;9.160;2024-01-11T02:25:21;42.95;;;19.17;;
77769;SDS011;66961;51.482;9.160;2024-01-11T02:30:11;45.13;;;17.00;;
77769;SDS011;66961;51.482;9.160;2024-01-11T02:32:37;34.15;;;15.23;;
77769;SDS011;66961;51.482;9.160;2024-01-11T02:35:03;33.80;;;14.88;;
77769;SDS011;66961;51.482;9.160;2024-01-11T02:37:28;38.88;;;15.15;;
77769;SDS011;66961;51.482;9.160;2024-01-11T02:39:54;43.97;;;17.05;;
77769;SDS011;66961;51.482;9.160;2024-01-11T02:42:20;38.88;;;16.75;;
77769;SDS011;66961;51.482;9.160;2024-01-11T02:44:45;36.63;;;15.40;;
77769;SDS011;66961;51.482;9.160;2024-01-11T02:47:11;42.85;;;18.17;;
77769;SDS011;66961;51.482;9.160;2024-01-11T02:49:37;35.77;;;16.23;;
77769;SDS011;66961;51.482;9.160;2024-01-11T02:52:02;38.27;;;15.43;;
77769;SDS011;66961;51.482;9.160;2024-01-11T02:54:27;37.80;;;16.67;;
77769;SDS011;66961;51.482;9.160;2024-01-11T02:56:53;38.27;;;15.70;;
77769;SDS011;66961;51.482;9.160;2024-01-11T02:59:18;38.43;;;15.73;;
77769;SDS011;66961;51.482;9.160;2024-01-11T03:01:43;35.93;;;15.93;;
77769;SDS011;66961;51.482;9.160;2024-01-11T03:04:08;36.87;;;16.17;;
77769;SDS011;66961;51.482;9.160;2024-01-11T03:06:34;38.47;;;16.07;;
77769;SDS011;66961;51.482;9.160;2024-01-11T03:08:59;43.17;;;15.97;;
77769;SDS011;66961;51.482;9.160;2024-01-11T03:11:24;32.43;;;14.57;;
77769;SDS011;66961;51.482;9.160;2024-01-11T03:13:49;36.47;;;15.20;;
77769;SDS011;66961;51.482;9.160;2024-01-11T03:16:15;38.83;;;16.20;;
77769;SDS011;66961;51.482;9.160;2024-01-11T03:18:40;35.47;;;15.83;;
77769;SDS011;66961;51.482;9.160;2024-01-11T03:21:05;35.17;;;14.67;;
77769;SDS011;66961;51.482;9.160;2024-01-11T03:23:30;33.50;;;14.10;;
77769;SDS011;66961;51.482;9.160;2024-01-11T03:25:56;43.23;;;15.70;;
77769;SDS011;66961;51.482;9.160;2024-01-11T03:28:21;36.00;;;13.87;;
77769;SDS011;66961;51.482;9.160;2024-01-11T03:30:46;32.33;;;14.57;;
77769;SDS011;66961;51.482;9.160;2024-01-11T03:33:11;35.97;;;14.30;;
77769;SDS011;66961;51.482;9.160;2024-01-11T03:35:37;38.07;;;15.87;;
77769;SDS011;66961;51.482;9.160;2024-01-11T03:38:02;37.77;;;14.20;;
77769;SDS011;66961;51.482;9.160;2024-01-11T03:40:27;36.10;;;14.57;;
77769;SDS011;66961;51.482;9.160;2024-01-11T03:42:53;36.23;;;14.43;;
77769;SDS011;66961;51.482;9.160;2024-01-11T03:45:18;42.37;;;16.30;;
77769;SDS011;66961;51.482;9.160;2024-01-11T03:47:43;39.72;;;17.20;;
77769;SDS011;66961;51.482;9.160;2024-01-11T03:50:09;42.20;;;15.57;;
77769;SDS011;66961;51.482;9.160;2024-01-11T03:52:34;37.10;;;15.17;;
77769;SDS011;66961;51.482;9.160;2024-01-11T03:54:59;37.70;;;16.23;;
77769;SDS011;66961;51.482;9.160;2024-01-11T03:57:24;37.43;;;15.43;;
77769;SDS011;66961;51.482;9.160;2024-01-11T03:59:50;38.03;;;16.90;;
77769;SDS011;66961;51.482;9.160;2024-01-11T04:02:15;39.47;;;15.33;;
77769;SDS011;66961;51.482;9.160;2024-01-11T04:04:40;41.17;;;16.13;;
77769;SDS011;66961;51.482;9.160;2024-01-11T04:07:06;38.95;;;15.65;;
77769;SDS011;66961;51.482;9.160;2024-01-11T04:09:31;39.23;;;16.77;;
77769;SDS011;66961;51.482;9.160;2024-01-11T04:11:56;41.83;;;15.93;;
77769;SDS011;66961;51.482;9.160;2024-01-11T04:14:22;36.37;;;15.37;;
77769;SDS011;66961;51.482;9.160;2024-01-11T04:16:47;38.67;;;16.43;;
77769;SDS011;66961;51.482;9.160;2024-01-11T04:19:12;40.43;;;16.50;;
77769;SDS011;66961;51.482;9.160;2024-01-11T04:21:38;32.88;;;14.73;;
77769;SDS011;66961;51.482;9.160;2024-01-11T04:24:03;36.83;;;15.87;;
77769;SDS011;66961;51.482;9.160;2024-01-11T04:26:28;47.03;;;17.37;;
77769;SDS011;66961;51.482;9.160;2024-01-11T04:28:54;36.53;;;15.60;;
77769;SDS011;66961;51.482;9.160;2024-01-11T04:31:19;40.57;;;14.67;;
77769;SDS011;66961;51.482;9.160;2024-01-11T04:33:44;40.73;;;17.47;;
77769;SDS011;66961;51.482;9.160;2024-01-11T04:36:10;40.55;;;15.68;;
77769;SDS011;66961;51.482;9.160;2024-01-11T04:38:37;39.20;;;15.10;;
77769;SDS011;66961;51.482;9.160;2024-01-11T04:41:02;38.00;;;14.63;;
77769;SDS011;66961;51.482;9.160;2024-01-11T04:43:40;40.85;;;16.25;;
77769;SDS011;66961;51.482;9.160;2024-01-11T04:46:16;44.78;;;16.70;;
77769;SDS011;66961;51.482;9.160;2024-01-11T04:48:43;36.53;;;15.10;;
77769;SDS011;66961;51.482;9.160;2024-01-11T04:51:09;38.63;;;15.77;;
77769;SDS011;66961;51.482;9.160;2024-01-11T04:53:41;41.80;;;16.77;;
77769;SDS011;66961;51.482;9.160;2024-01-11T04:56:08;38.33;;;15.55;;
77769;SDS011;66961;51.482;9.160;2024-01-11T04:58:34;46.55;;;17.80;;
77769;SDS011;66961;51.482;9.160;2024-01-11T05:01:00;42.50;;;16.10;;
77769;SDS011;66961;51.482;9.160;2024-01-11T05:03:25;41.00;;;15.13;;
77769;SDS011;66961;51.482;9.160;2024-01-11T05:05:51;43.50;;;16.07;;
77769;SDS011;66961;51.482;9.160;2024-01-11T05:08:16;34.22;;;15.27;;
77769;SDS011;66961;51.482;9.160;2024-01-11T05:10:41;40.80;;;15.97;;
77769;SDS011;66961;51.482;9.160;2024-01-11T05:13:07;42.50;;;16.05;;
77769;SDS011;66961;51.482;9.160;2024-01-11T05:15:33;35.90;;;15.57;;
77769;SDS011;66961;51.482;9.160;2024-01-11T05:17:59;36.78;;;14.85;;
77769;SDS011;66961;51.482;9.160;2024-01-11T05:20:24;39.63;;;15.20;;
77769;SDS011;66961;51.482;9.160;2024-01-11T05:22:49;38.23;;;14.70;;
77769;SDS011;66961;51.482;9.160;2024-01-11T05:25:15;35.43;;;14.73;;
77769;SDS011;66961;51.482;9.160;2024-01-11T05:27:40;31.63;;;13.27;;
77769;SDS011;66961;51.482;9.160;2024-01-11T05:30:05;38.80;;;14.80;;
77769;SDS011;66961;51.482;9.160;2024-01-11T05:32:31;43.15;;;15.88;;
77769;SDS011;66961;51.482;9.160;2024-01-11T05:34:56;42.83;;;15.17;;
77769;SDS011;66961;51.482;9.160;2024-01-11T05:37:22;44.83;;;16.00;;
77769;SDS011;66961;51.482;9.160;2024-01-11T05:39:47;36.87;;;14.97;;
77769;SDS011;66961;51.482;9.160;2024-01-11T05:42:12;33.47;;;14.87;;
77769;SDS011;66961;51.482;9.160;2024-01-11T05:44:37;36.73;;;14.70;;
77769;SDS011;66961;51.482;9.160;2024-01-11T05:47:03;36.77;;;14.70;;
77769;SDS011;66961;51.482;9.160;2024-01-11T05:49:28;29.80;;;13.43;;
77769;SDS011;66961;51.482;9.160;2024-01-11T05:51:53;34.03;;;13.23;;
77769;SDS011;66961;51.482;9.160;2024-01-11T05:54:18;35.33;;;14.80;;
77769;SDS011;66961;51.482;9.160;2024-01-11T05:56:44;41.00;;;15.33;;
77769;SDS011;66961;51.482;9.160;2024-01-11T05:59:09;40.33;;;17.10;;
77769;SDS011;66961;51.482;9.160;2024-01-11T06:01:40;38.50;;;15.63;;
77769;SDS011;66961;51.482;9.160;2024-01-11T06:04:06;33.17;;;14.35;;
77769;SDS011;66961;51.482;9.160;2024-01-11T06:06:31;41.97;;;15.47;;
77769;SDS011;66961;51.482;9.160;2024-01-11T06:08:56;34.03;;;15.27;;
77769;SDS011;66961;51.482;9.160;2024-01-11T06:11:21;39.27;;;15.57;;
77769;SDS011;66961;51.482;9.160;2024-01-11T06:13:47;34.37;;;15.73;;
77769;SDS011;66961;51.482;9.160;2024-01-11T06:16:12;41.80;;;16.27;;
77769;SDS011;66961;51.482;9.160;2024-01-11T06:18:37;35.43;;;14.93;;
77769;SDS011;66961;51.482;9.160;2024-01-11T06:21:03;33.07;;;15.03;;
77769;SDS011;66961;51.482;9.160;2024-01-11T06:23:28;36.75;;;15.93;;
77769;SDS011;66961;51.482;9.160;2024-01-11T06:25:53;39.30;;;16.07;;
77769;SDS011;66961;51.482;9.160;2024-01-11T06:28:19;40.93;;;15.83;;
77769;SDS011;66961;51.482;9.160;2024-01-11T06:30:44;36.73;;;14.73;;
77769;SDS011;66961;51.482;9.160;2024-01-11T06:33:09;34.37;;;14.83;;
77769;SDS011;66961;51.482;9.160;2024-01-11T06:35:34;39.03;;;16.03;;
77769;SDS011;66961;51.482;9.160;2024-01-11T06:38:00;35.63;;;14.27;;
77769;SDS011;66961;51.482;9.160;2024-01-11T06:40:25;35.78;;;14.30;;
77769;SDS011;66961;51.482;9.160;2024-01-11T06:42:50;37.57;;;15.27;;
77769;SDS011;66961;51.482;9.160;2024-01-11T06:45:16;36.43;;;14.90;;
77769;SDS011;66961;51.482;9.160;2024-01-11T06:47:41;36.78;;;14.70;;
77769;SDS011;66961;51.482;9.160;2024-01-11T06:50:06;32.27;;;14.97;;
77769;SDS011;66961;51.482;9.160;2024-01-11T06:52:32;40.60;;;16.65;;
77769;SDS011;66961;51.482;9.160;2024-01-11T06:54:57;40.17;;;14.83;;
77769;SDS011;66961;51.482;9.160;2024-01-11T06:57:23;42.50;;;16.23;;
77769;SDS011;66961;51.482;9.160;2024-01-11T06:59:48;37.83;;;15.47;;
77769;SDS011;66961;51.482;9.160;2024-01-11T07:02:13;39.27;;;16.37;;
77769;SDS011;66961;51.482;9.160;2024-01-11T07:04:42;35.87;;;16.30;;
77769;SDS011;66961;51.482;9.160;2024-01-11T07:07:08;44.25;;;16.85;;
77769;SDS011;66961;51.482;9.160;2024-01-11T07:09:34;35.97;;;15.00;;
77769;SDS011;66961;51.482;9.160;2024-01-11T07:11:59;38.70;;;16.30;;
77769;SDS011;66961;51.482;9.160;2024-01-11T07:14:25;33.80;;;14.60;;
77769;SDS011;66961;51.482;9.160;2024-01-11T07:16:51;38.60;;;16.23;;
77769;SDS011;66961;51.482;9.160;2024-01-11T07:19:16;40.50;;;15.67;;
77769;SDS011;66961;51.482;9.160;2024-01-11T07:21:41;37.00;;;15.33;;
77769;SDS011;66961;51.482;9.160;2024-01-11T07:24:06;40.77;;;16.43;;
77769;SDS011;66961;51.482;9.160;2024-01-11T07:26:32;35.77;;;14.70;;
77769;SDS011;66961;51.482;9.160;2024-01-11T07:28:57;34.33;;;15.90;;
77769;SDS011;66961;51.482;9.160;2024-01-11T07:31:22;37.23;;;16.47;;
77769;SDS011;66961;51.482;9.160;2024-01-11T07:33:48;37.47;;;17.70;;
77769;SDS011;66961;51.482;9.160;2024-01-11T07:36:13;42.05;;;16.60;;
77769;SDS011;66961;51.482;9.160;2024-01-11T07:38:38;46.57;;;17.33;;
77769;SDS011;66961;51.482;9.160;2024-01-11T07:41:04;38.97;;;16.77;;
77769;SDS011;66961;51.482;9.160;2024-01-11T07:43:29;39.95;;;16.67;;
77769;SDS011;66961;51.482;9.160;2024-01-11T07:45:54;38.00;;;16.33;;
77769;SDS011;66961;51.482;9.160;2024-01-11T07:48:20;40.28;;;16.23;;
77769;SDS011;66961;51.482;9.160;2024-01-11T07:50:45;35.07;;;15.53;;
77769;SDS011;66961;51.482;9.160;2024-01-11T07:53:10;36.67;;;14.53;;
77769;SDS011;66961;51.482;9.160;2024-01-11T07:55:35;37.83;;;15.10;;
77769;SDS011;66961;51.482;9.160;2024-01-11T07:58:01;39.07;;;16.07;;
77769;SDS011;66961;51.482;9.160;2024-01-11T08:00:26;36.67;;;15.53;;
77769;SDS011;66961;51.482;9.160;2024-01-11T08:02:51;35.33;;;15.10;;
77769;SDS011;66961;51.482;9.160;2024-01-11T08:05:16;38.47;;;15.97;;
77769;SDS011;66961;51.482;9.160;2024-01-11T08:07:42;42.27;;;16.73;;
77769;SDS011;66961;51.482;9.160;2024-01-11T08:10:07;33.87;;;14.77;;
77769;SDS011;66961;51.482;9.160;2024-01-11T08:12:33;30.00;;;14.90;;
77769;SDS011;66961;51.482;9.160;2024-01-11T08:14:58;36.03;;;13.90;;
77769;SDS011;66961;51.482;9.160;2024-01-11T08:17:23;40.53;;;16.10;;
77769;SDS011;66961;51.482;9.160;2024-01-11T08:19:49;38.37;;;16.10;;
77769;SDS011;66961;51.482;9.160;2024-01-11T08:22:14;33.30;;;14.70;;
77769;SDS011;66961;51.482;9.160;2024-01-11T08:24:40;40.05;;;15.32;;
77769;SDS011;66961;51.482;9.160;2024-01-11T08:27:05;39.43;;;16.20;;
77769;SDS011;66961;51.482;9.160;2024-01-11T08:29:30;39.57;;;16.30;;
77769;SDS011;66961;51.482;9.160;2024-01-11T08:31:55;38.43;;;17.23;;
77769;SDS011;66961;51.482;9.160;2024-01-11T08:34:21;36.63;;;17.33;;
77769;SDS011;66961;51.482;9.160;2024-01-11T08:36:46;39.27;;;17.03;;
77769;SDS011;66961;51.482;9.160;2024-01-11T08:39:11;44.50;;;19.20;;
77769;SDS011;66961;51.482;9.160;2024-01-11T08:41:36;40.80;;;17.50;;
77769;SDS011;66961;51.482;9.160;2024-01-11T08:44:02;44.40;;;17.40;;
77769;SDS011;66961;51.482;9.160;2024-01-11T08:46:27;37.33;;;16.07;;
77769;SDS011;66961;51.482;9.160;2024-01-11T08:48:53;44.03;;;18.20;;
77769;SDS011;66961;51.482;9.160;2024-01-11T08:51:19;41.22;;;17.55;;
77769;SDS011;66961;51.482;9.160;2024-01-11T08:53:44;39.72;;;16.63;;
77769;SDS011;66961;51.482;9.160;2024-01-11T08:56:09;41.70;;;17.90;;
77769;SDS011;66961;51.482;9.160;2024-01-11T08:58:35;40.03;;;17.13;;
77769;SDS011;66961;51.482;9.160;2024-01-11T09:01:00;48.37;;;19.33;;
77769;SDS011;66961;51.482;9.160;2024-01-11T09:03:25;36.83;;;17.03;;
77769;SDS011;66961;51.482;9.160;2024-01-11T09:05:50;40.53;;;17.33;;
77769;SDS011;66961;51.482;9.160;2024-01-11T09:08:16;44.40;;;18.20;;
77769;SDS011;66961;51.482;9.160;2024-01-11T09:10:41;42.27;;;17.20;;
77769;SDS011;66961;51.482;9.160;2024-01-11T09:13:06;39.93;;;17.07;;
77769;SDS011;66961;51.482;9.160;2024-01-11T09:15:32;41.20;;;16.75;;
77769;SDS011;66961;51.482;9.160;2024-01-11T09:17:58;43.90;;;17.27;;
77769;SDS011;66961;51.482;9.160;2024-01-11T09:20:23;40.22;;;17.17;;
77769;SDS011;66961;51.482;9.160;2024-01-11T09:22:49;39.20;;;16.67;;
77769;SDS011;66961;51.482;9.160;2024-01-11T09:25:14;39.43;;;17.77;;
77769;SDS011;66961;51.482;9.160;2024-01-11T09:27:39;37.97;;;17.67;;
77769;SDS011;66961;51.482;9.160;2024-01-11T09:30:05;41.67;;;16.53;;
77769;SDS011;66961;51.482;9.160;2024-01-11T09:32:31;42.97;;;18.08;;
77769;SDS011;66961;51.482;9.160;2024-01-11T09:34:56;35.80;;;16.07;;
77769;SDS011;66961;51.482;9.160;2024-01-11T09:37:21;36.03;;;15.83;;
77769;SDS011;66961;51.482;9.160;2024-01-11T09:39:46;35.67;;;15.83;;
77769;SDS011;66961;51.482;9.160;2024-01-11T09:42:12;39.40;;;16.87;;
77769;SDS011;66961;51.482;9.160;2024-01-11T09:44:37;36.60;;;17.17;;
77769;SDS011;66961;51.482;9.160;2024-01-11T09:47:03;40.22;;;17.40;;
77769;SDS011;66961;51.482;9.160;2024-01-11T09:49:30;36.20;;;17.25;;
77769;SDS011;66961;51.482;9.160;2024-01-11T09:51:56;36.17;;;17.65;;
77769;SDS011;66961;51.482;9.160;2024-01-11T09:54:22;36.35;;;16.67;;
77769;SDS011;66961;51.482;9.160;2024-01-11T09:56:49;36.00;;;16.50;;
77769;SDS011;66961;51.482;9.160;2024-01-11T09:59:16;40.22;;;18.67;;
77769;SDS011;66961;51.482;9.160;2024-01-11T10:01:43;38.95;;;18.52;;
77769;SDS011;66961;51.482;9.160;2024-01-11T10:04:09;39.17;;;17.42;;
77769;SDS011;66961;51.482;9.160;2024-01-11T10:06:36;36.72;;;17.50;;
77769;SDS011;66961;51.482;9.160;2024-01-11T10:09:03;42.00;;;17.88;;
77769;SDS011;66961;51.482;9.160;2024-01-11T10:11:28;43.23;;;19.77;;
77769;SDS011;66961;51.482;9.160;2024-01-11T10:13:57;39.20;;;17.63;;
77769;SDS011;66961;51.482;9.160;2024-01-11T10:16:22;36.83;;;16.17;;
77769;SDS011;66961;51.482;9.160;2024-01-11T10:18:48;36.75;;;17.05;;
77769;SDS011;66961;51.482;9.160;2024-01-11T10:21:13;40.97;;;18.57;;
77769;SDS011;66961;51.482;9.160;2024-01-11T10:23:39;36.73;;;17.17;;
77769;SDS011;66961;51.482;9.160;2024-01-11T10:26:04;35.30;;;17.10;;
77769;SDS011;66961;51.482;9.160;2024-01-11T10:28:29;34.72;;;17.52;;
77769;SDS011;66961;51.482;9.160;2024-01-11T10:30:55;44.57;;;19.10;;
77769;SDS011;66961;51.482;9.160;2024-01-11T10:33:21;33.45;;;16.80;;
77769;SDS011;66961;51.482;9.160;2024-01-11T10:35:48;40.45;;;18.95;;
77769;SDS011;66961;51.482;9.160;2024-01-11T10:38:13;41.63;;;18.85;;
77769;SDS011;66961;51.482;9.160;2024-01-11T10:40:39;39.05;;;17.95;;
77769;SDS011;66961;51.482;9.160;2024-01-11T10:43:06;33.28;;;16.67;;
77769;SDS011;66961;51.482;9.160;2024-01-11T10:45:34;37.17;;;17.48;;
77769;SDS011;66961;51.482;9.160;2024-01-11T10:48:03;37.75;;;18.05;;
77769;SDS011;66961;51.482;9.160;2024-01-11T10:50:34;41.53;;;16.83;;
77769;SDS011;66961;51.482;9.160;2024-01-11T10:53:04;34.70;;;16.52;;
77769;SDS011;66961;51.482;9.160;2024-01-11T10:55:37;44.53;;;20.73;;
77769;SDS011;66961;51.482;9.160;2024-01-11T10:58:04;38.95;;;17.70;;
77769;SDS011;66961;51.482;9.160;2024-01-11T11:00:29;38.97;;;17.85;;
77769;SDS011;66961;51.482;9.160;2024-01-11T11:02:56;34.85;;;17.30;;
77769;SDS011;66961;51.482;9.160;2024-01-11T11:05:24;36.85;;;17.40;;
77769;SDS011;66961;51.482;9.160;2024-01-11T11:07:51;36.53;;;17.52;;
77769;SDS011;66961;51.482;9.160;2024-01-11T11:10:19;40.75;;;19.55;;
77769;SDS011;66961;51.482;9.160;2024-01-11T11:12:48;36.38;;;17.52;;
77769;SDS011;66961;51.482;9.160;2024-01-11T11:15:14;32.88;;;17.63;;
77769;SDS011;66961;51.482;9.160;2024-01-11T11:17:40;33.40;;;16.48;;
77769;SDS011;66961;51.482;9.160;2024-01-11T11:20:07;35.33;;;16.30;;
77769;SDS011;66961;51.482;9.160;2024-01-11T11:22:35;35.17;;;17.17;;
77769;SDS011;66961;51.482;9.160;2024-01-11T11:25:06;37.38;;;17.83;;
77769;SDS011;66961;51.482;9.160;2024-01-11T11:27:36;34.45;;;16.70;;
77769;SDS011;66961;51.482;9.160;2024-01-11T11:30:05;32.83;;;17.10;;
77769;SDS011;66961;51.482;9.160;2024-01-11T11:32:37;32.70;;;17.02;;
77769;SDS011;66961;51.482;9.160;2024-01-11T11:35:04;34.45;;;17.70;;
77769;SDS011;66961;51.482;9.160;2024-01-11T11:37:30;36.70;;;16.75;;
77769;SDS011;66961;51.482;9.160;2024-01-11T11:39:55;32.43;;;15.87;;
77769;SDS011;66961;51.482;9.160;2024-01-11T11:42:22;31.40;;;16.88;;
77769;SDS011;66961;51.482;9.160;2024-01-11T11:44:48;33.70;;;16.40;;
77769;SDS011;66961;51.482;9.160;2024-01-11T11:47:18;33.78;;;16.88;;
77769;SDS011;66961;51.482;9.160;2024-01-11T11:52:22;36.00;;;17.52;;
77769;SDS011;66961;51.482;9.160;2024-01-11T11:54:48;35.22;;;17.20;;
77769;SDS011;66961;51.482;9.160;2024-01-11T11:57:15;33.70;;;17.33;;
77769;SDS011;66961;51.482;9.160;2024-01-11T11:59:42;34.03;;;17.13;;
77769;SDS011;66961;51.482;9.160;2024-01-11T12:02:08;30.10;;;16.75;;
77769;SDS011;66961;51.482;9.160;2024-01-11T12:04:41;34.72;;;18.33;;
77769;SDS011;66961;51.482;9.160;2024-01-11T12:07:11;34.67;;;17.45;;
77769;SDS011;66961;51.482;9.160;2024-01-11T12:09:37;35.47;;;18.57;;
77769;SDS011;66961;51.482;9.160;2024-01-11T12:12:02;35.13;;;18.10;;
77769;SDS011;66961;51.482;9.160;2024-01-11T12:14:28;32.95;;;17.88;;
77769;SDS011;66961;51.482;9.160;2024-01-11T12:16:57;34.70;;;17.42;;
77769;SDS011;66961;51.482;9.160;2024-01-11T12:19:23;31.95;;;17.02;;
77769;SDS011;66961;51.482;9.160;2024-01-11T12:21:49;29.75;;;16.17;;
77769;SDS011;66961;51.482;9.160;2024-01-11T12:24:15;33.88;;;17.10;;
77769;SDS011;66961;51.482;9.160;2024-01-11T12:26:41;32.05;;;16.58;;
77769;SDS011;66961;51.482;9.160;2024-01-11T12:29:07;36.35;;;16.85;;
77769;SDS011;66961;51.482;9.160;2024-01-11T12:31:32;30.23;;;16.48;;
77769;SDS011;66961;51.482;9.160;2024-01-11T12:33:57;28.57;;;14.80;;
77769;SDS011;66961;51.482;9.160;2024-01-11T12:36:23;26.65;;;15.27;;
77769;SDS011;66961;51.482;9.160;2024-01-11T12:38:48;34.10;;;14.68;;
77769;SDS011;66961;51.482;9.160;2024-01-11T12:41:14;31.87;;;15.37;;
77769;SDS011;66961;51.482;9.160;2024-01-11T12:43:40;27.50;;;14.50;;
77769;SDS011;66961;51.482;9.160;2024-01-11T12:46:05;25.63;;;14.60;;
77769;SDS011;66961;51.482;9.160;2024-01-11T12:48:30;30.33;;;14.82;;
77769;SDS011;66961;51.482;9.160;2024-01-11T12:50:56;27.92;;;15.13;;
77769;SDS011;66961;51.482;9.160;2024-01-11T12:53:21;25.85;;;14.63;;
77769;SDS011;66961;51.482;9.160;2024-01-11T12:55:49;29.60;;;15.40;;
77769;SDS011;66961;51.482;9.160;2024-01-11T12:58:26;25.33;;;13.23;;
77769;SDS011;66961;51.482;9.160;2024-01-11T13:00:51;26.00;;;14.47;;
77769;SDS011;66961;51.482;9.160;2024-01-11T13:03:17;24.60;;;13.53;;
77769;SDS011;66961;51.482;9.160;2024-01-11T13:05:42;24.33;;;13.25;;
77769;SDS011;66961;51.482;9.160;2024-01-11T13:08:08;24.70;;;13.27;;
77769;SDS011;66961;51.482;9.160;2024-01-11T13:10:34;33.22;;;18.17;;
77769;SDS011;66961;51.482;9.160;2024-01-11T13:13:00;28.10;;;15.10;;
77769;SDS011;66961;51.482;9.160;2024-01-11T13:15:25;24.13;;;12.77;;
77769;SDS011;66961;51.482;9.160;2024-01-11T13:17:50;24.53;;;13.17;;
77769;SDS011;66961;51.482;9.160;2024-01-11T13:20:15;24.67;;;12.47;;
77769;SDS011;66961;51.482;9.160;2024-01-11T13:22:41;25.73;;;12.80;;
77769;SDS011;66961;51.482;9.160;2024-01-11T13:25:06;23.87;;;12.90;;
77769;SDS011;66961;51.482;9.160;2024-01-11T13:27:31;25.67;;;12.48;;
77769;SDS011;66961;51.482;9.160;2024-01-11T13:29:57;26.50;;;13.87;;
77769;SDS011;66961;51.482;9.160;2024-01-11T13:32:22;23.97;;;12.90;;
77769;SDS011;66961;51.482;9.160;2024-01-11T13:34:47;28.53;;;14.47;;
77769;SDS011;66961;51.482;9.160;2024-01-11T13:37:12;25.10;;;13.23;;
77769;SDS011;66961;51.482;9.160;2024-01-11T13:39:38;29.17;;;14.00;;
77769;SDS011;66961;51.482;9.160;2024-01-11T13:42:03;24.80;;;13.57;;
77769;SDS011;66961;51.482;9.160;2024-01-11T13:44:28;28.00;;;14.25;;
77769;SDS011;66961;51.482;9.160;2024-01-11T13:46:54;27.47;;;14.27;;
77769;SDS011;66961;51.482;9.160;2024-01-11T13:49:19;25.57;;;13.10;;
77769;SDS011;66961;51.482;9.160;2024-01-11T13:51:44;22.00;;;11.17;;
77769;SDS011;66961;51.482;9.160;2024-01-11T13:54:09;21.20;;;10.20;;
77769;SDS011;66961;51.482;9.160;2024-01-11T13:56:35;18.10;;;9.97;;
77769;SDS011;66961;51.482;9.160;2024-01-11T13:59:00;19.60;;;10.30;;
77769;SDS011;66961;51.482;9.160;2024-01-11T14:01:25;20.88;;;10.48;;
77769;SDS011;66961;51.482;9.160;2024-01-11T14:03:51;18.90;;;9.87;;
77769;SDS011;66961;51.482;9.160;2024-01-11T14:06:16;20.83;;;10.70;;
77769;SDS011;66961;51.482;9.160;2024-01-11T14:08:41;18.25;;;10.32;;
77769;SDS011;66961;51.482;9.160;2024-01-11T14:11:06;25.67;;;13.17;;
77769;SDS011;66961;51.482;9.160;2024-01-11T14:13:32;24.90;;;12.90;;
77769;SDS011;66961;51.482;9.160;2024-01-11T14:15:57;19.77;;;10.80;;
77769;SDS011;66961;51.482;9.160;2024-01-11T14:18:22;15.13;;;8.33;;
77769;SDS011;66961;51.482;9.160;2024-01-11T14:20:50;15.90;;;8.27;;